sensor_id;sensor_type;location;lat;lon;timestamp;P1;durP1;ratioP1;P2;durP2;ratioP2
9834;SDS011;69850;50.942;13.748;2023-05-16T00:01:56;20.17;;;12.57;;
9834;SDS011;69850;50.942;13.748;2023-05-16T00:05:17;15.98;;;13.27;;
9834;SDS011;69850;50.942;13.748;2023-05-16T00:08:37;17.30;;;12.45;;
9834;SDS011;69850;50.942;13.748;2023-05-16T00:11:58;16.00;;;12.38;;
9834;SDS011;69850;50.942;13.748;2023-05-16T00:15:19;17.33;;;13.32;;
9834;SDS011;69850;50.942;13.748;2023-05-16T00:18:39;15.98;;;12.98;;
9834;SDS011;69850;50.942;13.748;2023-05-16T00:22:00;15.55;;;13.10;;
9834;SDS011;69850;50.942;13.748;2023-05-16T00:25:21;16.83;;;13.40;;
9834;SDS011;69850;50.942;13.748;2023-05-16T00:28:42;18.67;;;13.73;;
9834;SDS011;69850;50.942;13.748;2023-05-16T00:32:03;18.92;;;14.55;;
9834;SDS011;69850;50.942;13.748;2023-05-16T00:35:24;18.63;;;14.02;;
9834;SDS011;69850;50.942;13.748;2023-05-16T00:38:45;18.23;;;13.60;;
9834;SDS011;69850;50.942;13.748;2023-05-16T00:42:05;16.45;;;13.75;;
9834;SDS011;69850;50.942;13.748;2023-05-16T00:45:26;19.85;;;14.48;;
9834;SDS011;69850;50.942;13.748;2023-05-16T00:48:47;20.25;;;14.90;;
9834;SDS011;69850;50.942;13.748;2023-05-16T00:52:08;18.17;;;14.80;;
9834;SDS011;69850;50.942;13.748;2023-05-16T00:55:29;18.55;;;14.43;;
9834;SDS011;69850;50.942;13.748;2023-05-16T00:58:49;18.17;;;14.32;;
9834;SDS011;69850;50.942;13.748;2023-05-16T01:02:11;20.20;;;14.30;;
9834;SDS011;69850;50.942;13.748;2023-05-16T01:05:32;20.02;;;14.57;;
9834;SDS011;69850;50.942;13.748;2023-05-16T01:08:53;18.15;;;14.88;;
9834;SDS011;69850;50.942;13.748;2023-05-16T01:12:27;18.23;;;14.68;;
9834;SDS011;69850;50.942;13.748;2023-05-16T01:16:04;21.25;;;15.05;;
9834;SDS011;69850;50.942;13.748;2023-05-16T01:23:19;20.75;;;16.42;;
9834;SDS011;69850;50.942;13.748;2023-05-16T01:26:52;20.73;;;15.30;;
9834;SDS011;69850;50.942;13.748;2023-05-16T01:30:14;19.63;;;15.10;;
9834;SDS011;69850;50.942;13.748;2023-05-16T01:33:36;19.05;;;16.40;;
9834;SDS011;69850;50.942;13.748;2023-05-16T01:36:59;21.33;;;16.35;;
9834;SDS011;69850;50.942;13.748;2023-05-16T01:45:14;20.25;;;16.20;;
9834;SDS011;69850;50.942;13.748;2023-05-16T01:48:57;23.20;;;17.75;;
9834;SDS011;69850;50.942;13.748;2023-05-16T01:52:27;22.77;;;18.02;;
9834;SDS011;69850;50.942;13.748;2023-05-16T01:55:52;20.50;;;16.85;;
9834;SDS011;69850;50.942;13.748;2023-05-16T01:59:17;22.02;;;17.55;;
9834;SDS011;69850;50.942;13.748;2023-05-16T02:02:40;24.05;;;18.10;;
9834;SDS011;69850;50.942;13.748;2023-05-16T02:06:02;22.92;;;18.05;;
9834;SDS011;69850;50.942;13.748;2023-05-16T02:09:24;22.92;;;18.05;;
9834;SDS011;69850;50.942;13.748;2023-05-16T02:12:45;23.52;;;19.13;;
9834;SDS011;69850;50.942;13.748;2023-05-16T02:16:05;23.38;;;19.08;;
9834;SDS011;69850;50.942;13.748;2023-05-16T02:19:26;24.90;;;19.67;;
9834;SDS011;69850;50.942;13.748;2023-05-16T02:22:47;26.20;;;18.75;;
9834;SDS011;69850;50.942;13.748;2023-05-16T02:26:09;26.80;;;19.67;;
9834;SDS011;69850;50.942;13.748;2023-05-16T02:29:29;24.75;;;20.13;;
9834;SDS011;69850;50.942;13.748;2023-05-16T02:32:50;25.90;;;20.77;;
9834;SDS011;69850;50.942;13.748;2023-05-16T02:36:12;26.60;;;20.88;;
9834;SDS011;69850;50.942;13.748;2023-05-16T02:39:36;28.33;;;20.58;;
9834;SDS011;69850;50.942;13.748;2023-05-16T02:42:57;28.88;;;21.65;;
9834;SDS011;69850;50.942;13.748;2023-05-16T02:46:30;28.90;;;21.70;;
9834;SDS011;69850;50.942;13.748;2023-05-16T02:49:53;28.67;;;21.05;;
9834;SDS011;69850;50.942;13.748;2023-05-16T02:53:14;26.67;;;20.15;;
9834;SDS011;69850;50.942;13.748;2023-05-16T02:56:34;25.52;;;20.58;;
9834;SDS011;69850;50.942;13.748;2023-05-16T02:59:56;29.52;;;20.67;;
9834;SDS011;69850;50.942;13.748;2023-05-16T03:03:17;26.30;;;20.70;;
9834;SDS011;69850;50.942;13.748;2023-05-16T03:06:38;26.60;;;20.77;;
9834;SDS011;69850;50.942;13.748;2023-05-16T03:09:59;27.08;;;19.95;;
9834;SDS011;69850;50.942;13.748;2023-05-16T03:13:19;26.55;;;20.25;;
9834;SDS011;69850;50.942;13.748;2023-05-16T03:16:40;27.90;;;20.50;;
9834;SDS011;69850;50.942;13.748;2023-05-16T03:20:03;26.95;;;20.83;;
9834;SDS011;69850;50.942;13.748;2023-05-16T03:23:24;25.30;;;19.80;;
9834;SDS011;69850;50.942;13.748;2023-05-16T03:26:45;27.52;;;20.40;;
9834;SDS011;69850;50.942;13.748;2023-05-16T03:30:07;25.02;;;19.73;;
9834;SDS011;69850;50.942;13.748;2023-05-16T03:33:28;23.88;;;19.80;;
9834;SDS011;69850;50.942;13.748;2023-05-16T03:36:49;26.23;;;20.65;;
9834;SDS011;69850;50.942;13.748;2023-05-16T03:40:10;26.27;;;20.08;;
9834;SDS011;69850;50.942;13.748;2023-05-16T03:43:31;27.00;;;21.05;;
9834;SDS011;69850;50.942;13.748;2023-05-16T03:46:52;29.67;;;21.20;;
9834;SDS011;69850;50.942;13.748;2023-05-16T03:50:13;25.58;;;20.40;;
9834;SDS011;69850;50.942;13.748;2023-05-16T03:53:35;27.85;;;20.98;;
9834;SDS011;69850;50.942;13.748;2023-05-16T03:56:56;25.35;;;20.25;;
9834;SDS011;69850;50.942;13.748;2023-05-16T04:00:17;24.13;;;20.35;;
9834;SDS011;69850;50.942;13.748;2023-05-16T04:03:38;25.67;;;20.70;;
9834;SDS011;69850;50.942;13.748;2023-05-16T04:06:59;26.48;;;20.95;;
9834;SDS011;69850;50.942;13.748;2023-05-16T04:10:20;25.88;;;19.90;;
9834;SDS011;69850;50.942;13.748;2023-05-16T04:13:41;27.27;;;20.00;;
9834;SDS011;69850;50.942;13.748;2023-05-16T04:17:02;26.52;;;20.45;;
9834;SDS011;69850;50.942;13.748;2023-05-16T04:20:23;27.60;;;19.38;;
9834;SDS011;69850;50.942;13.748;2023-05-16T04:23:43;25.00;;;19.92;;
9834;SDS011;69850;50.942;13.748;2023-05-16T04:27:04;24.92;;;19.45;;
9834;SDS011;69850;50.942;13.748;2023-05-16T04:30:28;25.40;;;19.98;;
9834;SDS011;69850;50.942;13.748;2023-05-16T04:33:48;27.58;;;19.80;;
9834;SDS011;69850;50.942;13.748;2023-05-16T04:37:09;28.70;;;18.98;;
9834;SDS011;69850;50.942;13.748;2023-05-16T04:40:30;27.90;;;19.52;;
9834;SDS011;69850;50.942;13.748;2023-05-16T04:43:51;24.75;;;18.65;;
9834;SDS011;69850;50.942;13.748;2023-05-16T04:47:12;24.65;;;19.92;;
9834;SDS011;69850;50.942;13.748;2023-05-16T04:50:33;26.77;;;19.75;;
9834;SDS011;69850;50.942;13.748;2023-05-16T04:53:54;25.80;;;19.08;;
9834;SDS011;69850;50.942;13.748;2023-05-16T04:57:15;24.23;;;18.70;;
9834;SDS011;69850;50.942;13.748;2023-05-16T05:00:35;23.30;;;19.00;;
9834;SDS011;69850;50.942;13.748;2023-05-16T05:03:57;24.45;;;19.10;;
9834;SDS011;69850;50.942;13.748;2023-05-16T05:07:17;25.80;;;20.02;;
9834;SDS011;69850;50.942;13.748;2023-05-16T05:10:38;32.53;;;21.08;;
9834;SDS011;69850;50.942;13.748;2023-05-16T05:14:00;28.30;;;19.85;;
9834;SDS011;69850;50.942;13.748;2023-05-16T05:17:21;26.02;;;20.00;;
9834;SDS011;69850;50.942;13.748;2023-05-16T05:20:42;24.80;;;19.67;;
9834;SDS011;69850;50.942;13.748;2023-05-16T05:24:02;26.75;;;19.55;;
9834;SDS011;69850;50.942;13.748;2023-05-16T05:27:23;23.65;;;19.17;;
9834;SDS011;69850;50.942;13.748;2023-05-16T05:30:44;29.50;;;20.17;;
9834;SDS011;69850;50.942;13.748;2023-05-16T05:34:07;26.58;;;21.05;;
9834;SDS011;69850;50.942;13.748;2023-05-16T05:37:28;28.48;;;22.13;;
9834;SDS011;69850;50.942;13.748;2023-05-16T05:40:49;25.58;;;21.40;;
9834;SDS011;69850;50.942;13.748;2023-05-16T05:44:09;27.75;;;21.17;;
9834;SDS011;69850;50.942;13.748;2023-05-16T05:47:30;27.42;;;21.25;;
9834;SDS011;69850;50.942;13.748;2023-05-16T05:50:51;25.00;;;19.42;;
9834;SDS011;69850;50.942;13.748;2023-05-16T05:54:12;23.10;;;18.42;;
9834;SDS011;69850;50.942;13.748;2023-05-16T05:57:32;25.23;;;18.98;;
9834;SDS011;69850;50.942;13.748;2023-05-16T06:00:53;25.33;;;18.55;;
9834;SDS011;69850;50.942;13.748;2023-05-16T06:04:14;27.27;;;19.52;;
9834;SDS011;69850;50.942;13.748;2023-05-16T06:07:34;24.45;;;18.15;;
9834;SDS011;69850;50.942;13.748;2023-05-16T06:10:55;23.50;;;18.85;;
9834;SDS011;69850;50.942;13.748;2023-05-16T06:14:16;23.48;;;19.13;;
9834;SDS011;69850;50.942;13.748;2023-05-16T06:17:36;24.23;;;18.90;;
9834;SDS011;69850;50.942;13.748;2023-05-16T06:20:57;26.83;;;19.60;;
9834;SDS011;69850;50.942;13.748;2023-05-16T06:24:18;26.27;;;20.40;;
9834;SDS011;69850;50.942;13.748;2023-05-16T06:27:39;28.30;;;20.63;;
9834;SDS011;69850;50.942;13.748;2023-05-16T06:30:59;27.73;;;22.08;;
9834;SDS011;69850;50.942;13.748;2023-05-16T06:34:20;26.80;;;22.10;;
9834;SDS011;69850;50.942;13.748;2023-05-16T06:37:46;32.58;;;23.35;;
9834;SDS011;69850;50.942;13.748;2023-05-16T06:41:07;31.95;;;22.98;;
9834;SDS011;69850;50.942;13.748;2023-05-16T06:44:28;29.25;;;23.25;;
9834;SDS011;69850;50.942;13.748;2023-05-16T06:47:48;27.45;;;22.90;;
9834;SDS011;69850;50.942;13.748;2023-05-16T06:51:09;31.02;;;23.27;;
9834;SDS011;69850;50.942;13.748;2023-05-16T06:54:30;29.95;;;23.13;;
9834;SDS011;69850;50.942;13.748;2023-05-16T06:57:51;31.88;;;24.00;;
9834;SDS011;69850;50.942;13.748;2023-05-16T07:01:12;34.22;;;25.52;;
9834;SDS011;69850;50.942;13.748;2023-05-16T07:04:32;41.38;;;27.08;;
9834;SDS011;69850;50.942;13.748;2023-05-16T07:07:56;38.10;;;28.48;;
9834;SDS011;69850;50.942;13.748;2023-05-16T07:11:16;40.78;;;29.92;;
9834;SDS011;69850;50.942;13.748;2023-05-16T07:14:37;41.78;;;30.02;;
9834;SDS011;69850;50.942;13.748;2023-05-16T07:17:58;46.88;;;31.70;;
9834;SDS011;69850;50.942;13.748;2023-05-16T07:21:18;43.50;;;30.85;;
9834;SDS011;69850;50.942;13.748;2023-05-16T07:24:39;43.63;;;30.80;;
9834;SDS011;69850;50.942;13.748;2023-05-16T07:27:59;44.40;;;30.23;;
9834;SDS011;69850;50.942;13.748;2023-05-16T07:31:20;41.90;;;30.33;;
9834;SDS011;69850;50.942;13.748;2023-05-16T07:34:41;42.53;;;28.77;;
9834;SDS011;69850;50.942;13.748;2023-05-16T07:38:01;42.80;;;28.27;;
9834;SDS011;69850;50.942;13.748;2023-05-16T07:41:22;39.50;;;28.40;;
9834;SDS011;69850;50.942;13.748;2023-05-16T07:44:44;38.03;;;27.73;;
9834;SDS011;69850;50.942;13.748;2023-05-16T07:48:05;36.38;;;26.85;;
9834;SDS011;69850;50.942;13.748;2023-05-16T07:51:26;38.20;;;27.83;;
9834;SDS011;69850;50.942;13.748;2023-05-16T07:54:46;36.40;;;26.67;;
9834;SDS011;69850;50.942;13.748;2023-05-16T07:58:07;34.60;;;25.30;;
9834;SDS011;69850;50.942;13.748;2023-05-16T08:01:28;33.40;;;25.05;;
9834;SDS011;69850;50.942;13.748;2023-05-16T08:04:48;30.63;;;23.25;;
9834;SDS011;69850;50.942;13.748;2023-05-16T08:08:09;32.55;;;23.33;;
9834;SDS011;69850;50.942;13.748;2023-05-16T08:11:30;30.52;;;21.95;;
9834;SDS011;69850;50.942;13.748;2023-05-16T08:14:50;27.05;;;20.52;;
9834;SDS011;69850;50.942;13.748;2023-05-16T08:18:14;27.42;;;19.15;;
9834;SDS011;69850;50.942;13.748;2023-05-16T08:21:35;25.27;;;19.52;;
9834;SDS011;69850;50.942;13.748;2023-05-16T08:24:56;27.42;;;20.20;;
9834;SDS011;69850;50.942;13.748;2023-05-16T08:28:17;29.60;;;21.05;;
9834;SDS011;69850;50.942;13.748;2023-05-16T08:31:38;25.55;;;20.42;;
9834;SDS011;69850;50.942;13.748;2023-05-16T08:34:58;29.27;;;20.35;;
9834;SDS011;69850;50.942;13.748;2023-05-16T08:38:19;29.25;;;19.98;;
9834;SDS011;69850;50.942;13.748;2023-05-16T08:41:40;32.45;;;21.27;;
9834;SDS011;69850;50.942;13.748;2023-05-16T08:45:01;31.65;;;21.38;;
9834;SDS011;69850;50.942;13.748;2023-05-16T08:48:22;27.40;;;21.17;;
9834;SDS011;69850;50.942;13.748;2023-05-16T08:51:44;32.35;;;21.77;;
9834;SDS011;69850;50.942;13.748;2023-05-16T08:55:05;29.75;;;21.73;;
9834;SDS011;69850;50.942;13.748;2023-05-16T08:58:30;29.65;;;21.65;;
9834;SDS011;69850;50.942;13.748;2023-05-16T09:01:51;29.20;;;21.38;;
9834;SDS011;69850;50.942;13.748;2023-05-16T09:05:12;34.20;;;22.38;;
9834;SDS011;69850;50.942;13.748;2023-05-16T09:08:34;33.67;;;23.27;;
9834;SDS011;69850;50.942;13.748;2023-05-16T09:11:55;31.63;;;23.55;;
9834;SDS011;69850;50.942;13.748;2023-05-16T09:15:17;34.30;;;23.08;;
9834;SDS011;69850;50.942;13.748;2023-05-16T09:18:38;32.95;;;22.25;;
9834;SDS011;69850;50.942;13.748;2023-05-16T09:22:00;29.05;;;21.45;;
9834;SDS011;69850;50.942;13.748;2023-05-16T09:25:23;28.67;;;20.67;;
9834;SDS011;69850;50.942;13.748;2023-05-16T09:28:45;24.70;;;19.33;;
9834;SDS011;69850;50.942;13.748;2023-05-16T09:32:12;25.25;;;17.55;;
9834;SDS011;69850;50.942;13.748;2023-05-16T09:35:34;20.35;;;15.98;;
9834;SDS011;69850;50.942;13.748;2023-05-16T09:38:54;21.35;;;16.20;;
9834;SDS011;69850;50.942;13.748;2023-05-16T09:42:15;22.85;;;15.07;;
9834;SDS011;69850;50.942;13.748;2023-05-16T09:45:37;22.00;;;15.32;;
9834;SDS011;69850;50.942;13.748;2023-05-16T09:48:57;20.27;;;15.50;;
9834;SDS011;69850;50.942;13.748;2023-05-16T09:52:18;20.63;;;15.38;;
9834;SDS011;69850;50.942;13.748;2023-05-16T09:55:39;19.95;;;14.90;;
9834;SDS011;69850;50.942;13.748;2023-05-16T09:58:59;20.55;;;14.57;;
9834;SDS011;69850;50.942;13.748;2023-05-16T10:02:20;17.35;;;13.43;;
9834;SDS011;69850;50.942;13.748;2023-05-16T10:05:41;18.33;;;13.68;;
9834;SDS011;69850;50.942;13.748;2023-05-16T10:09:02;15.98;;;12.10;;
9834;SDS011;69850;50.942;13.748;2023-05-16T10:12:24;17.63;;;12.27;;
9834;SDS011;69850;50.942;13.748;2023-05-16T10:15:49;17.33;;;11.32;;
9834;SDS011;69850;50.942;13.748;2023-05-16T10:19:10;14.75;;;11.35;;
9834;SDS011;69850;50.942;13.748;2023-05-16T10:22:34;14.20;;;10.85;;
9834;SDS011;69850;50.942;13.748;2023-05-16T10:25:57;14.93;;;11.20;;
9834;SDS011;69850;50.942;13.748;2023-05-16T10:29:19;14.55;;;10.23;;
9834;SDS011;69850;50.942;13.748;2023-05-16T10:32:40;15.60;;;10.82;;
9834;SDS011;69850;50.942;13.748;2023-05-16T10:36:01;12.57;;;10.10;;
9834;SDS011;69850;50.942;13.748;2023-05-16T10:39:24;12.95;;;10.45;;
9834;SDS011;69850;50.942;13.748;2023-05-16T10:42:57;13.48;;;10.50;;
9834;SDS011;69850;50.942;13.748;2023-05-16T10:46:19;13.27;;;10.40;;
9834;SDS011;69850;50.942;13.748;2023-05-16T10:49:42;14.73;;;10.40;;
9834;SDS011;69850;50.942;13.748;2023-05-16T10:53:13;13.63;;;10.00;;
9834;SDS011;69850;50.942;13.748;2023-05-16T10:56:36;12.45;;;9.90;;
9834;SDS011;69850;50.942;13.748;2023-05-16T10:59:57;15.25;;;9.80;;
9834;SDS011;69850;50.942;13.748;2023-05-16T11:03:21;13.05;;;10.13;;
9834;SDS011;69850;50.942;13.748;2023-05-16T11:06:50;15.05;;;10.15;;
9834;SDS011;69850;50.942;13.748;2023-05-16T11:10:15;11.90;;;9.57;;
9834;SDS011;69850;50.942;13.748;2023-05-16T11:13:36;14.93;;;9.98;;
9834;SDS011;69850;50.942;13.748;2023-05-16T11:17:14;14.55;;;10.13;;
9834;SDS011;69850;50.942;13.748;2023-05-16T11:20:38;13.77;;;9.75;;
9834;SDS011;69850;50.942;13.748;2023-05-16T11:24:26;14.02;;;10.70;;
9834;SDS011;69850;50.942;13.748;2023-05-16T11:27:48;14.68;;;9.65;;
9834;SDS011;69850;50.942;13.748;2023-05-16T11:31:09;12.00;;;9.43;;
9834;SDS011;69850;50.942;13.748;2023-05-16T11:34:30;16.08;;;10.10;;
9834;SDS011;69850;50.942;13.748;2023-05-16T11:37:51;12.57;;;9.77;;
9834;SDS011;69850;50.942;13.748;2023-05-16T11:41:12;14.68;;;10.40;;
9834;SDS011;69850;50.942;13.748;2023-05-16T11:44:36;13.73;;;10.02;;
9834;SDS011;69850;50.942;13.748;2023-05-16T11:48:00;14.48;;;11.00;;
9834;SDS011;69850;50.942;13.748;2023-05-16T11:51:22;14.18;;;10.43;;
9834;SDS011;69850;50.942;13.748;2023-05-16T11:54:43;12.20;;;9.85;;
9834;SDS011;69850;50.942;13.748;2023-05-16T11:58:04;13.88;;;9.73;;
9834;SDS011;69850;50.942;13.748;2023-05-16T12:01:30;11.82;;;9.55;;
9834;SDS011;69850;50.942;13.748;2023-05-16T12:04:53;11.88;;;9.25;;
9834;SDS011;69850;50.942;13.748;2023-05-16T12:08:14;13.50;;;9.52;;
9834;SDS011;69850;50.942;13.748;2023-05-16T12:11:36;10.05;;;7.22;;
9834;SDS011;69850;50.942;13.748;2023-05-16T12:14:57;11.63;;;7.90;;
9834;SDS011;69850;50.942;13.748;2023-05-16T12:18:18;9.63;;;7.63;;
9834;SDS011;69850;50.942;13.748;2023-05-16T12:21:40;9.82;;;7.20;;
9834;SDS011;69850;50.942;13.748;2023-05-16T12:28:43;9.05;;;7.00;;
9834;SDS011;69850;50.942;13.748;2023-05-16T12:32:06;11.20;;;7.00;;
9834;SDS011;69850;50.942;13.748;2023-05-16T12:35:31;9.25;;;6.32;;
9834;SDS011;69850;50.942;13.748;2023-05-16T12:38:52;6.93;;;6.22;;
9834;SDS011;69850;50.942;13.748;2023-05-16T12:42:13;6.53;;;5.68;;
9834;SDS011;69850;50.942;13.748;2023-05-16T12:45:34;10.32;;;6.45;;
9834;SDS011;69850;50.942;13.748;2023-05-16T12:49:00;7.80;;;6.40;;
9834;SDS011;69850;50.942;13.748;2023-05-16T12:52:24;10.00;;;6.38;;
9834;SDS011;69850;50.942;13.748;2023-05-16T12:55:48;8.80;;;6.47;;
9834;SDS011;69850;50.942;13.748;2023-05-16T12:59:09;8.40;;;6.28;;
9834;SDS011;69850;50.942;13.748;2023-05-16T13:02:34;6.93;;;6.22;;
9834;SDS011;69850;50.942;13.748;2023-05-16T13:05:54;9.93;;;6.93;;
9834;SDS011;69850;50.942;13.748;2023-05-16T13:09:15;8.68;;;6.88;;
9834;SDS011;69850;50.942;13.748;2023-05-16T13:12:36;9.25;;;6.25;;
9834;SDS011;69850;50.942;13.748;2023-05-16T13:15:58;11.10;;;6.88;;
9834;SDS011;69850;50.942;13.748;2023-05-16T13:19:20;9.98;;;6.82;;
9834;SDS011;69850;50.942;13.748;2023-05-16T13:22:43;12.32;;;7.03;;
9834;SDS011;69850;50.942;13.748;2023-05-16T13:26:04;8.93;;;6.20;;
9834;SDS011;69850;50.942;13.748;2023-05-16T13:29:25;10.48;;;6.30;;
9834;SDS011;69850;50.942;13.748;2023-05-16T13:32:45;8.27;;;6.20;;
9834;SDS011;69850;50.942;13.748;2023-05-16T13:36:07;8.68;;;6.45;;
9834;SDS011;69850;50.942;13.748;2023-05-16T13:39:28;8.15;;;6.20;;
9834;SDS011;69850;50.942;13.748;2023-05-16T13:42:48;7.57;;;6.13;;
9834;SDS011;69850;50.942;13.748;2023-05-16T13:46:09;8.68;;;6.07;;
9834;SDS011;69850;50.942;13.748;2023-05-16T13:49:30;9.38;;;6.13;;
9834;SDS011;69850;50.942;13.748;2023-05-16T13:52:50;8.80;;;5.90;;
9834;SDS011;69850;50.942;13.748;2023-05-16T13:56:11;6.70;;;5.88;;
9834;SDS011;69850;50.942;13.748;2023-05-16T13:59:32;7.80;;;5.82;;
9834;SDS011;69850;50.942;13.748;2023-05-16T14:02:52;11.50;;;6.22;;
9834;SDS011;69850;50.942;13.748;2023-05-16T14:06:13;7.57;;;6.13;;
9834;SDS011;69850;50.942;13.748;2023-05-16T14:09:34;9.18;;;5.97;;
9834;SDS011;69850;50.942;13.748;2023-05-16T14:12:58;10.57;;;6.72;;
9834;SDS011;69850;50.942;13.748;2023-05-16T14:16:18;7.57;;;5.65;;
9834;SDS011;69850;50.942;13.748;2023-05-16T14:19:39;7.30;;;5.13;;
9834;SDS011;69850;50.942;13.748;2023-05-16T14:23:00;7.30;;;5.35;;
9834;SDS011;69850;50.942;13.748;2023-05-16T14:26:21;8.70;;;5.15;;
9834;SDS011;69850;50.942;13.748;2023-05-16T14:29:44;8.07;;;4.78;;
9834;SDS011;69850;50.942;13.748;2023-05-16T14:33:06;13.13;;;5.75;;
9834;SDS011;69850;50.942;13.748;2023-05-16T14:36:27;8.35;;;4.53;;
9834;SDS011;69850;50.942;13.748;2023-05-16T14:39:48;8.80;;;4.30;;
9834;SDS011;69850;50.942;13.748;2023-05-16T14:43:09;7.43;;;4.38;;
9834;SDS011;69850;50.942;13.748;2023-05-16T14:46:30;8.20;;;3.75;;
9834;SDS011;69850;50.942;13.748;2023-05-16T14:49:51;8.70;;;4.57;;
9834;SDS011;69850;50.942;13.748;2023-05-16T14:53:13;10.73;;;4.63;;
9834;SDS011;69850;50.942;13.748;2023-05-16T14:56:34;9.63;;;4.88;;
9834;SDS011;69850;50.942;13.748;2023-05-16T14:59:55;7.70;;;4.18;;
9834;SDS011;69850;50.942;13.748;2023-05-16T15:03:16;12.98;;;5.20;;
9834;SDS011;69850;50.942;13.748;2023-05-16T15:06:39;11.07;;;4.63;;
9834;SDS011;69850;50.942;13.748;2023-05-16T15:10:00;10.52;;;4.72;;
9834;SDS011;69850;50.942;13.748;2023-05-16T15:13:21;10.30;;;4.63;;
9834;SDS011;69850;50.942;13.748;2023-05-16T15:16:41;11.05;;;4.43;;
9834;SDS011;69850;50.942;13.748;2023-05-16T15:20:03;9.82;;;4.45;;
9834;SDS011;69850;50.942;13.748;2023-05-16T15:23:26;9.23;;;4.45;;
9834;SDS011;69850;50.942;13.748;2023-05-16T15:26:46;11.07;;;4.25;;
9834;SDS011;69850;50.942;13.748;2023-05-16T15:30:07;11.27;;;4.63;;
9834;SDS011;69850;50.942;13.748;2023-05-16T15:33:28;9.38;;;4.32;;
9834;SDS011;69850;50.942;13.748;2023-05-16T15:36:49;9.57;;;4.05;;
9834;SDS011;69850;50.942;13.748;2023-05-16T15:40:09;11.35;;;4.80;;
9834;SDS011;69850;50.942;13.748;2023-05-16T15:43:31;10.57;;;5.28;;
9834;SDS011;69850;50.942;13.748;2023-05-16T15:46:51;17.23;;;6.78;;
9834;SDS011;69850;50.942;13.748;2023-05-16T15:50:12;10.35;;;5.40;;
9834;SDS011;69850;50.942;13.748;2023-05-16T15:53:33;9.13;;;4.60;;
9834;SDS011;69850;50.942;13.748;2023-05-16T15:56:53;12.90;;;4.45;;
9834;SDS011;69850;50.942;13.748;2023-05-16T16:00:14;8.40;;;4.00;;
9834;SDS011;69850;50.942;13.748;2023-05-16T16:03:35;11.00;;;4.38;;
9834;SDS011;69850;50.942;13.748;2023-05-16T16:06:56;9.38;;;4.13;;
9834;SDS011;69850;50.942;13.748;2023-05-16T16:10:16;10.73;;;4.28;;
9834;SDS011;69850;50.942;13.748;2023-05-16T16:13:37;10.88;;;3.67;;
9834;SDS011;69850;50.942;13.748;2023-05-16T16:16:58;8.48;;;3.47;;
9834;SDS011;69850;50.942;13.748;2023-05-16T16:20:18;11.10;;;3.33;;
9834;SDS011;69850;50.942;13.748;2023-05-16T16:23:39;9.18;;;4.03;;
9834;SDS011;69850;50.942;13.748;2023-05-16T16:27:01;10.07;;;3.25;;
9834;SDS011;69850;50.942;13.748;2023-05-16T16:30:21;9.13;;;3.50;;
9834;SDS011;69850;50.942;13.748;2023-05-16T16:33:42;9.15;;;3.15;;
9834;SDS011;69850;50.942;13.748;2023-05-16T16:37:03;7.60;;;3.38;;
9834;SDS011;69850;50.942;13.748;2023-05-16T16:40:23;8.07;;;2.88;;
9834;SDS011;69850;50.942;13.748;2023-05-16T16:43:44;8.20;;;3.45;;
9834;SDS011;69850;50.942;13.748;2023-05-16T16:47:05;9.38;;;3.00;;
9834;SDS011;69850;50.942;13.748;2023-05-16T16:50:25;9.05;;;3.30;;
9834;SDS011;69850;50.942;13.748;2023-05-16T16:53:46;9.68;;;3.10;;
9834;SDS011;69850;50.942;13.748;2023-05-16T16:57:07;7.30;;;2.70;;
9834;SDS011;69850;50.942;13.748;2023-05-16T17:00:28;9.70;;;2.83;;
9834;SDS011;69850;50.942;13.748;2023-05-16T17:03:48;7.95;;;2.75;;
9834;SDS011;69850;50.942;13.748;2023-05-16T17:07:09;9.98;;;3.05;;
9834;SDS011;69850;50.942;13.748;2023-05-16T17:10:29;7.43;;;2.83;;
9834;SDS011;69850;50.942;13.748;2023-05-16T17:13:50;9.93;;;2.85;;
9834;SDS011;69850;50.942;13.748;2023-05-16T17:17:13;9.20;;;2.53;;
9834;SDS011;69850;50.942;13.748;2023-05-16T17:20:35;12.82;;;3.00;;
9834;SDS011;69850;50.942;13.748;2023-05-16T17:23:56;6.82;;;2.85;;
9834;SDS011;69850;50.942;13.748;2023-05-16T17:27:17;8.00;;;2.75;;
9834;SDS011;69850;50.942;13.748;2023-05-16T17:30:37;9.82;;;2.90;;
9834;SDS011;69850;50.942;13.748;2023-05-16T17:33:58;15.82;;;3.17;;
9834;SDS011;69850;50.942;13.748;2023-05-16T17:37:19;6.82;;;2.80;;
9834;SDS011;69850;50.942;13.748;2023-05-16T17:40:40;10.10;;;3.00;;
9834;SDS011;69850;50.942;13.748;2023-05-16T17:44:00;10.82;;;3.10;;
9834;SDS011;69850;50.942;13.748;2023-05-16T17:47:23;9.93;;;3.10;;
9834;SDS011;69850;50.942;13.748;2023-05-16T17:50:44;8.32;;;2.40;;
9834;SDS011;69850;50.942;13.748;2023-05-16T17:54:05;10.20;;;2.60;;
9834;SDS011;69850;50.942;13.748;2023-05-16T17:57:26;10.90;;;3.97;;
9834;SDS011;69850;50.942;13.748;2023-05-16T18:00:47;12.50;;;4.90;;
9834;SDS011;69850;50.942;13.748;2023-05-16T18:04:07;7.85;;;2.47;;
9834;SDS011;69850;50.942;13.748;2023-05-16T18:07:28;9.23;;;2.70;;
9834;SDS011;69850;50.942;13.748;2023-05-16T18:10:49;7.53;;;2.47;;
9834;SDS011;69850;50.942;13.748;2023-05-16T18:14:10;7.68;;;2.58;;
9834;SDS011;69850;50.942;13.748;2023-05-16T18:17:33;9.20;;;2.60;;
9834;SDS011;69850;50.942;13.748;2023-05-16T18:20:53;8.63;;;2.53;;
9834;SDS011;69850;50.942;13.748;2023-05-16T18:24:14;10.10;;;3.00;;
9834;SDS011;69850;50.942;13.748;2023-05-16T18:27:35;8.05;;;2.83;;
9834;SDS011;69850;50.942;13.748;2023-05-16T18:30:56;12.70;;;2.78;;
9834;SDS011;69850;50.942;13.748;2023-05-16T18:34:17;8.95;;;3.72;;
9834;SDS011;69850;50.942;13.748;2023-05-16T18:37:38;7.72;;;3.63;;
9834;SDS011;69850;50.942;13.748;2023-05-16T18:40:58;7.72;;;2.65;;
9834;SDS011;69850;50.942;13.748;2023-05-16T18:44:19;10.23;;;2.53;;
9834;SDS011;69850;50.942;13.748;2023-05-16T18:47:40;10.60;;;3.22;;
9834;SDS011;69850;50.942;13.748;2023-05-16T18:51:01;6.35;;;2.92;;
9834;SDS011;69850;50.942;13.748;2023-05-16T18:54:21;9.45;;;3.17;;
9834;SDS011;69850;50.942;13.748;2023-05-16T18:57:42;7.75;;;3.22;;
9834;SDS011;69850;50.942;13.748;2023-05-16T19:01:04;13.43;;;3.25;;
9834;SDS011;69850;50.942;13.748;2023-05-16T19:04:25;13.15;;;2.83;;
9834;SDS011;69850;50.942;13.748;2023-05-16T19:07:45;9.50;;;3.30;;
9834;SDS011;69850;50.942;13.748;2023-05-16T19:11:06;11.02;;;3.47;;
9834;SDS011;69850;50.942;13.748;2023-05-16T19:14:27;9.82;;;3.83;;
9834;SDS011;69850;50.942;13.748;2023-05-16T19:17:47;15.05;;;6.38;;
9834;SDS011;69850;50.942;13.748;2023-05-16T19:21:08;9.35;;;4.00;;
9834;SDS011;69850;50.942;13.748;2023-05-16T19:24:32;9.95;;;2.80;;
9834;SDS011;69850;50.942;13.748;2023-05-16T19:27:52;9.52;;;2.63;;
9834;SDS011;69850;50.942;13.748;2023-05-16T19:31:13;10.15;;;3.30;;
9834;SDS011;69850;50.942;13.748;2023-05-16T19:34:34;10.38;;;3.47;;
9834;SDS011;69850;50.942;13.748;2023-05-16T19:37:54;9.27;;;3.10;;
9834;SDS011;69850;50.942;13.748;2023-05-16T19:41:15;9.13;;;3.55;;
9834;SDS011;69850;50.942;13.748;2023-05-16T19:44:36;12.45;;;3.35;;
9834;SDS011;69850;50.942;13.748;2023-05-16T19:47:57;9.07;;;2.92;;
9834;SDS011;69850;50.942;13.748;2023-05-16T19:51:17;14.05;;;2.80;;
9834;SDS011;69850;50.942;13.748;2023-05-16T19:54:39;9.88;;;3.08;;
9834;SDS011;69850;50.942;13.748;2023-05-16T19:58:00;7.18;;;2.80;;
9834;SDS011;69850;50.942;13.748;2023-05-16T20:01:21;8.48;;;3.38;;
9834;SDS011;69850;50.942;13.748;2023-05-16T20:04:41;5.63;;;2.85;;